createdAt,value
2019-01-25T00:00:24.307Z,-3.30
2019-01-25T00:02:57.271Z,-3.30
2019-01-25T00:05:27.895Z,-3.30
2019-01-25T00:07:58.006Z,-3.30
2019-01-25T00:10:30.071Z,-3.30
2019-01-25T00:13:00.025Z,-3.30
2019-01-25T00:15:35.321Z,-3.30
2019-01-25T00:18:06.439Z,-3.40
2019-01-25T00:20:39.560Z,-3.30
2019-01-25T00:23:09.755Z,-3.40
2019-01-25T00:25:50.569Z,-3.40
2019-01-25T00:28:32.229Z,-3.40
2019-01-25T00:31:11.755Z,-3.30
2019-01-25T00:33:41.715Z,-3.30
2019-01-25T00:36:11.739Z,-3.30
2019-01-25T00:38:41.595Z,-3.30
2019-01-25T00:41:11.810Z,-3.30
2019-01-25T00:43:41.624Z,-3.30
2019-01-25T00:46:13.174Z,-3.30
2019-01-25T00:48:42.974Z,-3.30
2019-01-25T00:51:12.790Z,-3.30
2019-01-25T00:53:43.010Z,-3.40
2019-01-25T00:56:15.502Z,-3.30
2019-01-25T00:58:45.440Z,-3.30
2019-01-25T01:01:16.052Z,-3.30
2019-01-25T01:03:46.203Z,-3.30
2019-01-25T01:06:16.679Z,-3.30
2019-01-25T01:08:54.275Z,-3.40
2019-01-25T01:11:27.020Z,-3.40
2019-01-25T01:13:56.875Z,-3.30
2019-01-25T01:16:28.536Z,-3.40
2019-01-25T01:19:01.759Z,-3.40
2019-01-25T01:21:31.705Z,-3.30
2019-01-25T01:24:04.243Z,-3.30
2019-01-25T01:26:37.059Z,-3.30
2019-01-25T01:29:12.744Z,-3.30
2019-01-25T01:31:43.717Z,-3.30
2019-01-25T01:34:13.534Z,-3.30
2019-01-25T01:36:50.928Z,-3.30
2019-01-25T01:39:20.739Z,-3.30
2019-01-25T01:41:50.569Z,-3.30
2019-01-25T01:44:20.493Z,-3.30
2019-01-25T01:46:50.805Z,-3.30
2019-01-25T01:49:20.669Z,-3.30
2019-01-25T01:51:50.530Z,-3.30
2019-01-25T01:54:30.194Z,-3.30
2019-01-25T01:57:00.071Z,-3.30
2019-01-25T01:59:30.389Z,-3.30
2019-01-25T02:02:00.269Z,-3.40
2019-01-25T02:04:30.155Z,-3.40
2019-01-25T02:07:00.346Z,-3.50
2019-01-25T02:09:30.614Z,-3.50
2019-01-25T02:12:01.017Z,-3.50
2019-01-25T02:14:30.965Z,-3.40
2019-01-25T02:17:04.216Z,-3.40
2019-01-25T02:19:39.786Z,-3.40
2019-01-25T02:22:10.199Z,-3.40
2019-01-25T02:24:41.470Z,-3.50
2019-01-25T02:27:19.339Z,-3.50
2019-01-25T02:30:00.643Z,-3.50
2019-01-25T02:32:32.876Z,-3.40
2019-01-25T02:35:11.698Z,-3.40
2019-01-25T02:38:02.421Z,-3.40
2019-01-25T02:40:39.128Z,-3.30
2019-01-25T02:43:07.029Z,-3.40
2019-01-25T02:45:39.108Z,-3.40
2019-01-25T02:48:09.240Z,-3.40
2019-01-25T02:50:39.280Z,-3.40
2019-01-25T02:53:09.314Z,-3.40
2019-01-25T02:55:42.291Z,-3.40
2019-01-25T02:58:22.384Z,-3.50
2019-01-25T03:00:55.129Z,-3.50
2019-01-25T03:03:25.052Z,-3.60
2019-01-25T03:05:55.304Z,-3.60
2019-01-25T03:08:25.515Z,-3.60
2019-01-25T03:10:55.311Z,-3.70
2019-01-25T03:13:25.080Z,-3.60
2019-01-25T03:15:55.465Z,-3.50
2019-01-25T03:18:25.380Z,-3.50
2019-01-25T03:20:55.203Z,-3.50
2019-01-25T03:23:25.078Z,-3.50
2019-01-25T03:25:55.064Z,-3.50
2019-01-25T03:28:24.917Z,-3.50
2019-01-25T03:30:55.175Z,-3.50
2019-01-25T03:33:25.361Z,-3.50
2019-01-25T03:35:55.178Z,-3.50
2019-01-25T03:38:24.974Z,-3.60
2019-01-25T03:40:55.490Z,-3.60
2019-01-25T03:43:25.684Z,-3.60
2019-01-25T03:45:58.271Z,-3.60
2019-01-25T03:48:31.184Z,-3.60
2019-01-25T03:51:01.148Z,-3.60
2019-01-25T03:53:31.316Z,-3.50
2019-01-25T03:56:01.149Z,-3.50
2019-01-25T03:58:31.046Z,-3.50
2019-01-25T04:01:00.869Z,-3.50
2019-01-25T04:03:30.983Z,-3.60
2019-01-25T04:06:01.609Z,-3.60
2019-01-25T04:08:31.427Z,-3.60
2019-01-25T04:11:03.550Z,-3.50
2019-01-25T04:13:34.305Z,-3.50
2019-01-25T04:16:04.095Z,-3.50
2019-01-25T04:18:33.884Z,-3.60
2019-01-25T04:21:03.719Z,-3.60
2019-01-25T04:23:33.596Z,-3.70
2019-01-25T04:26:04.163Z,-3.70
2019-01-25T04:28:34.358Z,-3.70
2019-01-25T04:31:04.149Z,-3.70
2019-01-25T04:33:34.484Z,-3.70
2019-01-25T04:36:04.283Z,-3.70
2019-01-25T04:38:34.132Z,-3.70
2019-01-25T04:41:11.164Z,-3.70
2019-01-25T04:43:35.611Z,-3.70
2019-01-25T04:46:05.494Z,-3.70
2019-01-25T04:48:59.443Z,-3.80
2019-01-25T04:51:29.373Z,-3.70
2019-01-25T04:53:59.348Z,-3.80
2019-01-25T04:56:32.360Z,-3.80
2019-01-25T04:59:02.184Z,-3.90
2019-01-25T05:01:40.914Z,-3.90
2019-01-25T05:04:16.109Z,-3.90
2019-01-25T05:06:53.029Z,-3.90
2019-01-25T05:09:32.527Z,-3.90
2019-01-25T05:12:13.492Z,-3.80
2019-01-25T05:14:43.412Z,-3.80
2019-01-25T05:17:13.204Z,-3.70
2019-01-25T05:19:43.030Z,-3.70
2019-01-25T05:22:18.524Z,-3.60
2019-01-25T05:24:48.438Z,-3.60
2019-01-25T05:27:18.462Z,-3.50
2019-01-25T05:29:57.894Z,-3.60
2019-01-25T05:32:28.004Z,-3.70
2019-01-25T05:34:57.929Z,-3.70
2019-01-25T05:37:28.019Z,-3.70
2019-01-25T05:39:58.479Z,-3.70
2019-01-25T05:42:28.468Z,-3.70
2019-01-25T05:44:58.320Z,-3.70
2019-01-25T05:47:29.205Z,-3.60
2019-01-25T05:49:59.133Z,-3.70
2019-01-25T05:52:29.330Z,-3.70
2019-01-25T05:54:59.369Z,-3.70
2019-01-25T05:57:29.139Z,-3.70
2019-01-25T05:59:59.231Z,-3.70
2019-01-25T06:02:29.168Z,-3.70
2019-01-25T06:05:20.340Z,-3.60
2019-01-25T06:07:50.243Z,-3.70
2019-01-25T06:10:20.109Z,-3.70
2019-01-25T06:12:54.623Z,-3.60
2019-01-25T06:15:26.818Z,-3.70
2019-01-25T06:18:01.638Z,-3.70
2019-01-25T06:20:31.834Z,-3.70
2019-01-25T06:23:03.289Z,-3.70
2019-01-25T06:25:33.668Z,-3.70
2019-01-25T06:28:07.008Z,-3.70
2019-01-25T06:30:37.406Z,-3.70
2019-01-25T06:33:07.717Z,-3.70
2019-01-25T06:35:37.493Z,-3.60
2019-01-25T06:38:07.372Z,-3.70
2019-01-25T06:40:37.222Z,-3.70
2019-01-25T06:43:07.328Z,-3.70
2019-01-25T06:45:37.301Z,-3.70
2019-01-25T06:48:07.307Z,-3.60
2019-01-25T06:50:49.523Z,-3.60
2019-01-25T06:53:19.386Z,-3.50
2019-01-25T06:55:49.282Z,-3.50
2019-01-25T06:58:28.548Z,-3.50
2019-01-25T07:01:17.191Z,-3.50
2019-01-25T07:03:47.654Z,-3.50
2019-01-25T07:06:21.206Z,-3.50
2019-01-25T07:08:53.863Z,-3.50
2019-01-25T07:11:23.671Z,-3.50
2019-01-25T07:13:56.232Z,-3.50
2019-01-25T07:16:27.392Z,-3.50
2019-01-25T07:18:57.491Z,-3.50
2019-01-25T07:21:50.707Z,-3.50
2019-01-25T07:24:20.667Z,-3.50
2019-01-25T07:26:50.506Z,-3.50
2019-01-25T07:29:20.780Z,-3.50
2019-01-25T07:31:55.128Z,-3.50
2019-01-25T07:34:28.109Z,-3.50
2019-01-25T07:37:13.966Z,-3.60
2019-01-25T07:39:44.087Z,-3.60
2019-01-25T07:42:16.463Z,-3.60
2019-01-25T07:44:46.692Z,-3.50
2019-01-25T07:47:16.838Z,-3.50
2019-01-25T07:49:46.677Z,-3.50
2019-01-25T07:52:17.127Z,-3.40
2019-01-25T07:54:59.496Z,-3.40
2019-01-25T07:57:29.321Z,-3.40
2019-01-25T07:59:59.140Z,-3.40
2019-01-25T08:02:29.828Z,-3.30
2019-01-25T08:05:07.987Z,-3.30
2019-01-25T08:07:38.132Z,-3.20
2019-01-25T08:10:11.038Z,-3.20
2019-01-25T08:12:46.068Z,-3.20
2019-01-25T08:15:18.480Z,-3.10
2019-01-25T08:17:48.782Z,-3.10
2019-01-25T08:20:19.000Z,-3.00
2019-01-25T08:22:48.964Z,-2.90
2019-01-25T08:25:19.454Z,-2.90
2019-01-25T08:27:49.299Z,-2.80
2019-01-25T08:30:19.471Z,-2.80
2019-01-25T08:32:50.629Z,-2.80
2019-01-25T08:35:21.148Z,-2.80
2019-01-25T08:37:51.184Z,-2.70
2019-01-25T08:40:21.187Z,-2.60
2019-01-25T08:42:51.391Z,-2.50
2019-01-25T08:45:21.373Z,-2.50
2019-01-25T08:47:56.231Z,-2.40
2019-01-25T08:50:28.995Z,-2.40
2019-01-25T08:53:01.392Z,-2.40
2019-01-25T08:55:31.334Z,-2.40
2019-01-25T08:58:01.258Z,-2.40
2019-01-25T09:00:31.457Z,-2.50
2019-01-25T09:03:12.521Z,-2.40
2019-01-25T09:05:48.273Z,-2.40
2019-01-25T09:08:20.270Z,-2.40
2019-01-25T09:10:52.078Z,-2.40
2019-01-25T09:13:22.612Z,-2.40
2019-01-25T09:15:52.852Z,-2.40
2019-01-25T09:18:22.966Z,-2.40
2019-01-25T09:20:53.240Z,-2.40
2019-01-25T09:23:23.971Z,-2.30
2019-01-25T09:26:00.940Z,-2.30
2019-01-25T09:28:59.103Z,-2.20
2019-01-25T09:31:31.147Z,-2.20
2019-01-25T09:34:03.828Z,-2.20
2019-01-25T09:36:37.062Z,-2.10
2019-01-25T09:39:09.896Z,-2.10
2019-01-25T09:41:39.807Z,-2.00
2019-01-25T09:44:10.452Z,-2.00
2019-01-25T09:46:40.683Z,-2.00
2019-01-25T09:49:10.518Z,-1.90
2019-01-25T09:51:47.203Z,-1.80
2019-01-25T09:54:18.923Z,-1.80
2019-01-25T09:56:54.161Z,-1.70
2019-01-25T09:59:24.340Z,-1.70
2019-01-25T10:01:55.468Z,-1.70
2019-01-25T10:04:25.766Z,-1.60
2019-01-25T10:06:58.477Z,-1.50
2019-01-25T10:09:28.481Z,-1.50
2019-01-25T10:11:58.292Z,-1.30
2019-01-25T10:14:31.462Z,-1.30
2019-01-25T10:17:02.506Z,-1.30
2019-01-25T10:19:32.288Z,-1.30
2019-01-25T10:22:02.097Z,-1.20
2019-01-25T10:24:34.606Z,-1.20
2019-01-25T10:27:10.470Z,-1.20
2019-01-25T10:29:43.240Z,-1.10
2019-01-25T10:32:19.133Z,-1.00
2019-01-25T10:34:54.954Z,-1.00
2019-01-25T10:37:25.035Z,-1.00
2019-01-25T10:40:02.253Z,-1.00
2019-01-25T10:42:32.496Z,-1.00
2019-01-25T10:45:07.509Z,-1.10
2019-01-25T10:47:50.047Z,-1.00
2019-01-25T10:50:20.247Z,-1.00
2019-01-25T10:52:53.500Z,-1.00
2019-01-25T10:55:23.659Z,-1.00
2019-01-25T10:57:59.896Z,-1.00
2019-01-25T11:00:45.147Z,-1.00
2019-01-25T11:03:05.555Z,-0.90
2019-01-25T11:05:35.580Z,-0.90
2019-01-25T11:08:06.050Z,-0.80
2019-01-25T11:10:45.952Z,-0.80
2019-01-25T11:13:16.026Z,-0.80
2019-01-25T11:15:49.865Z,-0.80
2019-01-25T11:18:28.901Z,-0.70
2019-01-25T11:20:59.451Z,-0.70
2019-01-25T11:23:29.303Z,-0.60
2019-01-25T11:26:04.602Z,-0.60
2019-01-25T11:28:35.905Z,-0.50
2019-01-25T11:31:08.115Z,-0.40
2019-01-25T11:33:56.399Z,-0.30
2019-01-25T11:36:29.399Z,-0.30
2019-01-25T11:39:09.787Z,-0.20
2019-01-25T11:41:39.785Z,-0.20
2019-01-25T11:44:32.001Z,-0.20
2019-01-25T11:47:02.445Z,-0.20
2019-01-25T11:49:32.668Z,-0.10
2019-01-25T11:52:03.019Z,-0.10
2019-01-25T11:54:35.746Z,0.00
2019-01-25T11:57:05.800Z,0.10
2019-01-25T11:59:35.996Z,0.10
2019-01-25T12:02:06.681Z,0.10
2019-01-25T12:04:37.497Z,0.20
2019-01-25T12:07:07.695Z,0.20
2019-01-25T12:09:42.461Z,0.30
2019-01-25T12:12:16.045Z,0.30
2019-01-25T12:14:46.004Z,0.40
2019-01-25T12:17:18.499Z,0.50
2019-01-25T12:19:49.016Z,0.50
2019-01-25T12:22:19.154Z,0.60
2019-01-25T12:24:49.341Z,0.60
2019-01-25T12:27:20.938Z,0.60
2019-01-25T12:29:54.358Z,0.60
2019-01-25T12:32:34.331Z,0.60
2019-01-25T12:35:08.520Z,0.70
2019-01-25T12:37:39.099Z,0.70
2019-01-25T12:40:11.563Z,0.80
2019-01-25T12:42:42.825Z,0.80
2019-01-25T12:45:24.706Z,0.80
2019-01-25T12:47:54.953Z,0.90
2019-01-25T12:50:59.674Z,0.90
2019-01-25T12:53:30.183Z,0.90
2019-01-25T12:56:01.406Z,1.00
2019-01-25T12:58:39.029Z,1.00
2019-01-25T13:01:12.428Z,1.00
2019-01-25T13:03:42.339Z,1.00
2019-01-25T13:06:16.001Z,1.00
2019-01-25T13:08:48.290Z,1.00
2019-01-25T13:11:18.509Z,1.10
2019-01-25T13:13:57.557Z,1.00
2019-01-25T13:16:31.789Z,1.10
2019-01-25T13:19:02.187Z,1.10
2019-01-25T13:21:32.562Z,1.10
2019-01-25T13:24:03.850Z,1.20
2019-01-25T13:26:40.604Z,1.20
2019-01-25T13:29:14.196Z,1.20
2019-01-25T13:31:44.432Z,1.20
2019-01-25T13:34:20.037Z,1.10
2019-01-25T13:36:57.671Z,1.10
2019-01-25T13:39:27.875Z,1.10
2019-01-25T13:42:00.200Z,1.10
2019-01-25T13:44:30.816Z,1.10
2019-01-25T13:47:02.469Z,1.10
2019-01-25T13:49:37.450Z,1.10
2019-01-25T13:52:15.841Z,1.10
2019-01-25T13:54:49.684Z,1.10
2019-01-25T13:57:19.791Z,1.20
2019-01-25T13:59:52.336Z,1.10
2019-01-25T14:02:24.098Z,1.10
2019-01-25T14:04:54.436Z,1.10
2019-01-25T14:07:26.544Z,1.10
2019-01-25T14:09:56.631Z,1.00
2019-01-25T14:12:26.735Z,1.00
2019-01-25T14:14:56.766Z,1.00
2019-01-25T14:17:27.692Z,1.00
2019-01-25T14:19:57.722Z,1.00
2019-01-25T14:22:30.759Z,1.00
2019-01-25T14:25:14.439Z,1.00
2019-01-25T14:27:44.399Z,1.00
2019-01-25T14:30:29.390Z,1.10
2019-01-25T14:33:01.809Z,1.10
2019-01-25T14:35:31.808Z,1.10
2019-01-25T14:38:04.540Z,1.10
2019-01-25T14:40:43.438Z,1.20
2019-01-25T14:47:00.065Z,1.20
2019-01-25T14:49:46.953Z,1.30
2019-01-25T14:52:20.812Z,1.30
2019-01-25T14:55:10.075Z,1.30
2019-01-25T14:57:44.699Z,1.30
2019-01-25T15:00:15.595Z,1.30
2019-01-25T15:06:26.327Z,1.30
2019-01-25T15:08:57.869Z,1.20
2019-01-25T15:11:30.741Z,1.20
2019-01-25T15:18:08.513Z,1.20
2019-01-25T15:20:45.909Z,1.20
2019-01-25T15:23:24.371Z,1.30
2019-01-25T15:26:39.922Z,1.20
2019-01-25T15:29:54.372Z,1.30
2019-01-25T15:43:19.489Z,1.30
2019-01-25T15:46:23.658Z,1.30
2019-01-25T15:48:59.756Z,1.30
2019-01-25T15:52:28.425Z,1.30
2019-01-25T15:54:53.357Z,1.30
2019-01-25T15:57:41.376Z,1.30
2019-01-25T16:00:29.836Z,1.30
2019-01-25T16:03:39.120Z,1.30
2019-01-25T16:07:01.658Z,1.30
2019-01-25T16:10:01.268Z,1.30
2019-01-25T16:13:27.704Z,1.30
2019-01-25T16:16:10.935Z,1.30
2019-01-25T16:18:52.138Z,1.30
2019-01-25T16:25:56.398Z,1.30
2019-01-25T16:32:15.903Z,1.20
2019-01-25T16:38:58.528Z,1.10
2019-01-25T16:42:03.202Z,1.10
2019-01-25T16:44:46.709Z,1.00
2019-01-25T16:47:29.065Z,1.00
2019-01-25T16:50:29.559Z,1.00
2019-01-25T16:56:10.327Z,0.90
2019-01-25T16:58:43.545Z,0.90
2019-01-25T17:01:13.784Z,0.90
2019-01-25T17:03:51.239Z,0.90
2019-01-25T17:06:43.184Z,0.80
2019-01-25T17:09:20.283Z,0.80
2019-01-25T17:11:50.072Z,0.80
2019-01-25T17:14:33.579Z,0.80
2019-01-25T17:17:01.356Z,0.80
2019-01-25T17:19:32.133Z,0.80
2019-01-25T17:22:04.063Z,0.70
2019-01-25T17:24:34.132Z,0.80
2019-01-25T17:27:05.774Z,0.80
2019-01-25T17:29:43.945Z,0.80
2019-01-25T17:32:18.382Z,0.80
2019-01-25T17:34:52.904Z,0.80
2019-01-25T17:37:28.433Z,0.90
2019-01-25T17:39:59.734Z,0.90
2019-01-25T17:42:39.609Z,0.90
2019-01-25T17:45:13.258Z,0.90
2019-01-25T17:47:44.349Z,1.00
2019-01-25T17:50:14.568Z,1.00
2019-01-25T17:52:50.744Z,1.00
2019-01-25T17:55:26.069Z,1.10
2019-01-25T17:58:08.036Z,1.10
2019-01-25T18:00:56.712Z,1.10
2019-01-25T18:03:34.032Z,1.10
2019-01-25T18:06:07.793Z,1.10
2019-01-25T18:08:53.758Z,1.10
2019-01-25T18:11:27.512Z,1.10
2019-01-25T18:13:57.889Z,1.10
2019-01-25T18:16:40.488Z,1.10
2019-01-25T18:19:22.803Z,1.10
2019-01-25T18:26:05.318Z,1.20
2019-01-25T18:28:56.762Z,1.20
2019-01-25T18:31:34.986Z,1.30
2019-01-25T18:34:04.884Z,1.30
2019-01-25T18:36:34.626Z,1.30
2019-01-25T18:39:11.154Z,1.40
2019-01-25T18:41:47.739Z,1.40
2019-01-25T18:44:30.662Z,1.40
2019-01-25T18:47:00.516Z,1.40
2019-01-25T18:49:30.262Z,1.40
2019-01-25T18:52:01.460Z,1.40
2019-01-25T18:54:32.483Z,1.40
2019-01-25T18:57:02.188Z,1.40
2019-01-25T18:59:37.254Z,1.40
2019-01-25T19:02:09.565Z,1.40
2019-01-25T19:04:45.216Z,1.40
2019-01-25T19:07:18.531Z,1.50
2019-01-25T19:09:48.582Z,1.50
2019-01-25T19:12:24.417Z,1.50
2019-01-25T19:14:54.197Z,1.50
2019-01-25T19:17:27.053Z,1.60
2019-01-25T19:19:57.113Z,1.50
2019-01-25T19:22:34.257Z,1.50
2019-01-25T19:25:04.449Z,1.60
2019-01-25T19:27:36.748Z,1.60
2019-01-25T19:30:33.217Z,1.50
2019-01-25T19:33:03.271Z,1.60
2019-01-25T19:35:36.959Z,1.60
2019-01-25T19:38:08.603Z,1.60
2019-01-25T19:40:46.106Z,1.60
2019-01-25T19:46:16.591Z,1.60
2019-01-25T19:48:56.584Z,1.60
2019-01-25T19:51:29.528Z,1.60
2019-01-25T19:54:30.372Z,1.60
2019-01-25T19:57:03.022Z,1.60
2019-01-25T19:59:48.500Z,1.70
2019-01-25T20:02:19.627Z,1.60
2019-01-25T20:04:52.244Z,1.70
2019-01-25T20:07:22.020Z,1.70
2019-01-25T20:09:58.091Z,1.70
2019-01-25T20:12:28.937Z,1.70
2019-01-25T20:14:59.485Z,1.70
2019-01-25T20:17:46.106Z,1.70
2019-01-25T20:20:18.623Z,1.70
2019-01-25T20:22:48.195Z,1.70
2019-01-25T20:25:41.800Z,1.70
2019-01-25T20:28:12.051Z,1.70
2019-01-25T20:41:47.740Z,1.80
2019-01-25T20:44:20.586Z,1.80
2019-01-25T20:46:55.087Z,1.90
2019-01-25T20:49:27.596Z,1.90
2019-01-25T20:52:01.727Z,1.90
2019-01-25T20:54:33.419Z,1.90
2019-01-25T20:57:08.437Z,1.90
2019-01-25T20:59:44.393Z,1.90
2019-01-25T21:02:21.860Z,1.90
2019-01-25T21:04:54.548Z,1.90
2019-01-25T21:07:24.770Z,1.90
2019-01-25T21:09:58.667Z,1.90
2019-01-25T21:12:28.574Z,1.90
2019-01-25T21:14:58.425Z,1.90
2019-01-25T21:17:28.783Z,1.90
2019-01-25T21:20:02.874Z,1.90
2019-01-25T21:22:38.357Z,1.90
2019-01-25T21:25:12.045Z,1.90
2019-01-25T21:27:46.528Z,2.00
2019-01-25T21:30:33.740Z,2.00
2019-01-25T21:33:14.185Z,2.00
2019-01-25T21:35:46.326Z,2.00
2019-01-25T21:38:16.427Z,2.10
2019-01-25T21:40:48.361Z,2.10
2019-01-25T21:43:26.186Z,2.10
2019-01-25T21:46:02.194Z,2.10
2019-01-25T21:48:33.786Z,2.10
2019-01-25T21:51:11.052Z,2.20
2019-01-25T21:53:47.238Z,2.20
2019-01-25T21:56:17.321Z,2.20
2019-01-25T21:58:48.138Z,2.10
2019-01-25T22:01:18.013Z,2.20
2019-01-25T22:04:15.956Z,2.20
2019-01-25T22:06:59.580Z,2.20
2019-01-25T22:09:48.624Z,2.20
2019-01-25T22:12:20.006Z,2.20
2019-01-25T22:14:51.909Z,2.30
2019-01-25T22:17:33.312Z,2.30
2019-01-25T22:20:10.891Z,2.30
2019-01-25T22:22:36.521Z,2.30
2019-01-25T22:25:07.414Z,2.30
2019-01-25T22:27:43.192Z,2.40
2019-01-25T22:30:19.093Z,2.30
2019-01-25T22:32:51.209Z,2.40
2019-01-25T22:35:21.518Z,2.30
2019-01-25T22:37:54.680Z,2.40
2019-01-25T22:40:33.430Z,2.40
2019-01-25T22:43:05.739Z,2.40
2019-01-25T22:45:42.012Z,2.40
2019-01-25T22:48:14.684Z,2.50
2019-01-25T22:50:45.027Z,2.40
2019-01-25T22:53:18.009Z,2.50
2019-01-25T22:55:53.065Z,2.50
2019-01-25T22:58:24.420Z,2.50
2019-01-25T23:01:37.124Z,2.50
2019-01-25T23:04:30.416Z,2.50
2019-01-25T23:07:15.988Z,2.60
2019-01-25T23:10:00.608Z,2.60
2019-01-25T23:12:30.965Z,2.70
2019-01-25T23:15:02.574Z,2.70
2019-01-25T23:17:34.937Z,2.70
2019-01-25T23:22:43.600Z,2.80
2019-01-25T23:25:13.912Z,2.80
2019-01-25T23:27:47.861Z,2.80
2019-01-25T23:30:25.946Z,2.80
2019-01-25T23:32:57.091Z,2.90
2019-01-25T23:35:28.308Z,2.90
2019-01-25T23:37:59.371Z,3.00
2019-01-25T23:40:30.870Z,3.00
2019-01-25T23:43:00.697Z,3.00
2019-01-25T23:45:32.376Z,3.00
2019-01-25T23:48:06.346Z,3.00
2019-01-25T23:50:39.053Z,3.10
2019-01-25T23:53:11.053Z,3.10
2019-01-25T23:55:41.205Z,3.10
2019-01-25T23:58:15.324Z,3.20
